createdAt,value
2019-06-26T00:00:37.872Z,1014.6
2019-06-26T00:01:47.917Z,1014.64
2019-06-26T00:02:57.900Z,1014.64
2019-06-26T00:04:07.897Z,1014.66
2019-06-26T00:05:17.868Z,1014.62
2019-06-26T00:06:27.601Z,1014.61
2019-06-26T00:07:37.308Z,1014.6
2019-06-26T00:08:47.280Z,1014.64
2019-06-26T00:09:56.781Z,1014.62
2019-06-26T00:11:06.798Z,1014.65
2019-06-26T00:12:16.767Z,1014.63
2019-06-26T00:13:27.033Z,1014.6
2019-06-26T00:14:38.798Z,1014.59
2019-06-26T00:15:49.020Z,1014.61
2019-06-26T00:16:59.017Z,1014.6
2019-06-26T00:18:09.006Z,1014.62
2019-06-26T00:19:18.738Z,1014.63
2019-06-26T00:20:28.511Z,1014.61
2019-06-26T00:21:38.481Z,1014.61
2019-06-26T00:22:48.452Z,1014.62
2019-06-26T00:23:58.619Z,1014.65
2019-06-26T00:25:08.535Z,1014.64
2019-06-26T00:26:18.493Z,1014.61
2019-06-26T00:27:27.736Z,1014.61
2019-06-26T00:28:37.487Z,1014.64
2019-06-26T00:29:47.465Z,1014.61
2019-06-26T00:30:57.213Z,1014.62
2019-06-26T00:32:07.159Z,1014.65
2019-06-26T00:33:17.143Z,1014.65
2019-06-26T00:34:27.101Z,1014.65
2019-06-26T00:35:37.087Z,1014.62
2019-06-26T00:36:46.387Z,1014.6
2019-06-26T00:37:56.395Z,1014.58
2019-06-26T00:39:06.147Z,1014.57
2019-06-26T00:40:16.130Z,1014.59
2019-06-26T00:41:26.097Z,1014.57
2019-06-26T00:42:35.575Z,1014.57
2019-06-26T00:43:45.797Z,1014.56
2019-06-26T00:44:55.530Z,1014.6
2019-06-26T00:46:05.629Z,1014.56
2019-06-26T00:47:15.346Z,1014.58
2019-06-26T00:48:24.820Z,1014.58
2019-06-26T00:49:34.561Z,1014.57
2019-06-26T00:50:44.550Z,1014.61
2019-06-26T00:51:54.301Z,1014.6
2019-06-26T00:53:04.267Z,1014.59
2019-06-26T00:54:14.269Z,1014.58
2019-06-26T00:55:23.972Z,1014.57
2019-06-26T00:56:33.937Z,1014.59
2019-06-26T00:57:43.641Z,1014.56
2019-06-26T00:58:53.368Z,1014.57
2019-06-26T01:00:03.433Z,1014.53
2019-06-26T01:01:13.458Z,1014.58
2019-06-26T01:02:23.486Z,1014.54
2019-06-26T01:03:33.458Z,1014.52
2019-06-26T01:04:43.531Z,1014.54
2019-06-26T01:05:53.257Z,1014.53
2019-06-26T01:07:03.267Z,1014.52
2019-06-26T01:08:12.993Z,1014.51
2019-06-26T01:09:23.012Z,1014.5
2019-06-26T01:10:32.801Z,1014.54
2019-06-26T01:11:42.553Z,1014.5
2019-06-26T01:12:52.297Z,1014.49
2019-06-26T01:14:02.052Z,1014.48
2019-06-26T01:15:11.839Z,1014.47
2019-06-26T01:16:21.789Z,1014.47
2019-06-26T01:17:31.737Z,1014.46
2019-06-26T01:18:41.483Z,1014.43
2019-06-26T01:19:51.194Z,1014.44
2019-06-26T01:21:01.226Z,1014.42
2019-06-26T01:22:10.940Z,1014.44
2019-06-26T01:23:20.652Z,1014.44
2019-06-26T01:24:30.639Z,1014.4
2019-06-26T01:25:41.088Z,1014.41
2019-06-26T01:26:50.864Z,1014.42
2019-06-26T01:28:00.929Z,1014.41
2019-06-26T01:29:10.921Z,1014.37
2019-06-26T01:30:20.659Z,1014.35
2019-06-26T01:31:30.609Z,1014.38
2019-06-26T01:32:40.579Z,1014.38
2019-06-26T01:33:50.294Z,1014.34
2019-06-26T01:35:00.274Z,1014.34
2019-06-26T01:36:10.253Z,1014.34
2019-06-26T01:37:19.706Z,1014.34
2019-06-26T01:38:29.413Z,1014.35
2019-06-26T01:39:39.184Z,1014.33
2019-06-26T01:40:48.923Z,1014.33
2019-06-26T01:41:58.963Z,1014.32
2019-06-26T01:43:08.917Z,1014.39
2019-06-26T01:44:18.622Z,1014.34
2019-06-26T01:45:28.327Z,1014.36
2019-06-26T01:46:38.297Z,1014.37
2019-06-26T01:47:48.287Z,1014.36
2019-06-26T01:48:58.264Z,1014.36
2019-06-26T01:50:08.010Z,1014.36
2019-06-26T01:51:17.706Z,1014.38
2019-06-26T01:52:27.677Z,1014.39
2019-06-26T01:53:37.659Z,1014.38
2019-06-26T01:54:47.641Z,1014.39
2019-06-26T01:55:57.367Z,1014.38
2019-06-26T01:57:07.092Z,1014.34
2019-06-26T01:58:17.066Z,1014.34
2019-06-26T01:59:27.022Z,1014.35
2019-06-26T02:00:37.008Z,1014.33
2019-06-26T02:01:46.727Z,1014.28
2019-06-26T02:02:56.550Z,1014.33
2019-06-26T02:04:06.271Z,1014.32
2019-06-26T02:05:18.564Z,1014.3
2019-06-26T02:06:28.368Z,1014.28
2019-06-26T02:07:38.137Z,1014.29
2019-06-26T02:08:48.091Z,1014.31
2019-06-26T02:09:57.832Z,1014.31
2019-06-26T02:11:07.839Z,1014.31
2019-06-26T02:12:17.853Z,1014.37
2019-06-26T02:13:27.809Z,1014.38
2019-06-26T02:14:37.758Z,1014.34
2019-06-26T02:15:47.235Z,1014.34
2019-06-26T02:16:56.932Z,1014.28
2019-06-26T02:18:06.933Z,1014.31
2019-06-26T02:19:16.383Z,1014.32
2019-06-26T02:20:26.367Z,1014.29
2019-06-26T02:21:36.343Z,1014.26
2019-06-26T02:22:49.370Z,1014.24
2019-06-26T02:23:59.625Z,1014.21
2019-06-26T02:25:09.714Z,1014.24
2019-06-26T02:26:19.191Z,1014.23
2019-06-26T02:27:28.912Z,1014.23
2019-06-26T02:28:38.918Z,1014.2
2019-06-26T02:29:48.878Z,1014.18
2019-06-26T02:30:58.834Z,1014.19
2019-06-26T02:32:08.816Z,1014.19
2019-06-26T02:33:18.533Z,1014.18
2019-06-26T02:34:28.592Z,1014.17
2019-06-26T02:35:38.302Z,1014.15
2019-06-26T02:36:48.286Z,1014.16
2019-06-26T02:37:57.558Z,1014.12
2019-06-26T02:39:07.626Z,1014.16
2019-06-26T02:40:17.321Z,1014.09
2019-06-26T02:41:27.061Z,1014.1
2019-06-26T02:42:37.018Z,1014.08
2019-06-26T02:43:46.811Z,1014.06
2019-06-26T02:44:56.550Z,1014.07
2019-06-26T02:46:06.531Z,1014.05
2019-06-26T02:47:19.933Z,1014.05
2019-06-26T02:48:29.921Z,1014.04
2019-06-26T02:49:40.051Z,1014.02
2019-06-26T02:50:49.554Z,1014.01
2019-06-26T02:51:59.530Z,1014.01
2019-06-26T02:53:09.239Z,1013.94
2019-06-26T02:54:18.962Z,1013.96
2019-06-26T02:55:28.743Z,1013.91
2019-06-26T02:56:38.454Z,1013.94
2019-06-26T02:57:47.977Z,1013.93
2019-06-26T02:58:57.957Z,1013.87
2019-06-26T03:00:07.928Z,1013.88
2019-06-26T03:01:17.653Z,1013.88
2019-06-26T03:02:27.631Z,1013.87
2019-06-26T03:03:37.601Z,1013.87
2019-06-26T03:04:47.080Z,1013.9
2019-06-26T03:05:56.820Z,1013.9
2019-06-26T03:07:06.794Z,1013.88
2019-06-26T03:08:16.770Z,1013.87
2019-06-26T03:09:26.764Z,1013.86
2019-06-26T03:10:36.216Z,1013.88
2019-06-26T03:11:46.184Z,1013.88
2019-06-26T03:12:55.884Z,1013.87
2019-06-26T03:14:05.628Z,1013.83
2019-06-26T03:15:15.601Z,1013.84
2019-06-26T03:16:25.303Z,1013.85
2019-06-26T03:17:35.263Z,1013.84
2019-06-26T03:19:01.653Z,1013.83
2019-06-26T03:20:11.670Z,1013.82
2019-06-26T03:21:21.639Z,1013.83
2019-06-26T03:22:31.370Z,1013.77
2019-06-26T03:23:41.326Z,1013.8
2019-06-26T03:24:51.303Z,1013.77
2019-06-26T03:26:01.044Z,1013.78
2019-06-26T03:27:11.037Z,1013.78
2019-06-26T03:28:20.752Z,1013.81
2019-06-26T03:29:30.459Z,1013.82
2019-06-26T03:30:40.419Z,1013.84
2019-06-26T03:31:49.971Z,1013.84
2019-06-26T03:32:59.467Z,1013.88
2019-06-26T03:34:09.490Z,1013.87
2019-06-26T03:35:19.266Z,1013.93
2019-06-26T03:36:28.987Z,1013.92
2019-06-26T03:37:38.715Z,1013.9
2019-06-26T03:38:48.692Z,1013.94
2019-06-26T03:39:58.667Z,1013.9
2019-06-26T03:41:08.444Z,1013.91
2019-06-26T03:42:18.427Z,1013.94
2019-06-26T03:43:27.878Z,1013.95
2019-06-26T03:44:40.788Z,1013.96
2019-06-26T03:45:50.756Z,1013.98
2019-06-26T03:47:00.858Z,1013.97
2019-06-26T03:48:10.863Z,1013.97
2019-06-26T03:49:20.596Z,1013.99
2019-06-26T03:50:30.550Z,1013.96
2019-06-26T03:51:40.547Z,1013.97
2019-06-26T03:52:50.824Z,1013.99
2019-06-26T03:54:00.882Z,1014
2019-06-26T03:55:10.611Z,1013.97
2019-06-26T03:56:20.296Z,1013.96
2019-06-26T03:57:30.399Z,1013.98
2019-06-26T03:58:42.900Z,1013.99
2019-06-26T03:59:52.350Z,1013.98
2019-06-26T04:01:02.539Z,1014.01
2019-06-26T04:02:12.652Z,1013.99
2019-06-26T04:03:22.389Z,1014.04
2019-06-26T04:04:32.337Z,1014.05
2019-06-26T04:05:42.326Z,1014.06
2019-06-26T04:06:52.302Z,1014.07
2019-06-26T04:08:02.306Z,1014.1
2019-06-26T04:09:12.339Z,1014.11
2019-06-26T04:10:22.299Z,1014.14
2019-06-26T04:11:31.748Z,1014.18
2019-06-26T04:12:41.717Z,1014.14
2019-06-26T04:13:51.429Z,1014.23
2019-06-26T04:15:01.124Z,1014.17
2019-06-26T04:16:10.896Z,1014.15
2019-06-26T04:17:20.376Z,1014.15
2019-06-26T04:18:30.446Z,1014.12
2019-06-26T04:19:40.474Z,1014.16
2019-06-26T04:20:50.180Z,1014.14
2019-06-26T04:22:00.150Z,1014.15
2019-06-26T04:23:09.853Z,1014.12
2019-06-26T04:24:19.811Z,1014.14
2019-06-26T04:25:29.768Z,1014.13
2019-06-26T04:26:43.172Z,1014.13
2019-06-26T04:27:53.134Z,1014.21
2019-06-26T04:29:06.789Z,1014.18
2019-06-26T04:30:16.779Z,1014.2
2019-06-26T04:31:26.866Z,1014.22
2019-06-26T04:32:36.593Z,1014.24
2019-06-26T04:33:46.566Z,1014.26
2019-06-26T04:34:56.524Z,1014.26
2019-06-26T04:36:06.371Z,1014.24
2019-06-26T04:37:16.328Z,1014.23
2019-06-26T04:38:26.293Z,1014.23
2019-06-26T04:39:36.010Z,1014.27
2019-06-26T04:40:45.960Z,1014.21
2019-06-26T04:41:55.915Z,1014.19
2019-06-26T04:43:05.875Z,1014.26
2019-06-26T04:44:15.907Z,1014.22
2019-06-26T04:45:25.912Z,1014.25
2019-06-26T04:46:35.665Z,1014.24
2019-06-26T04:47:45.461Z,1014.23
2019-06-26T04:48:55.430Z,1014.24
2019-06-26T04:50:05.378Z,1014.23
2019-06-26T04:51:15.078Z,1014.19
2019-06-26T04:52:25.062Z,1014.22
2019-06-26T04:53:35.223Z,1014.23
2019-06-26T04:54:45.171Z,1014.24
2019-06-26T04:55:55.115Z,1014.23
2019-06-26T04:57:05.099Z,1014.23
2019-06-26T04:58:15.043Z,1014.24
2019-06-26T04:59:24.801Z,1014.26
2019-06-26T05:00:34.802Z,1014.24
2019-06-26T05:01:44.829Z,1014.17
2019-06-26T05:02:54.315Z,1014.22
2019-06-26T05:04:04.028Z,1014.17
2019-06-26T05:05:13.736Z,1014.22
2019-06-26T05:06:38.923Z,1014.23
2019-06-26T05:07:48.913Z,1014.21
2019-06-26T05:09:01.535Z,1014.27
2019-06-26T05:10:11.245Z,1014.23
2019-06-26T05:11:21.193Z,1014.25
2019-06-26T05:12:31.180Z,1014.21
2019-06-26T05:13:41.161Z,1014.22
2019-06-26T05:14:50.901Z,1014.23
2019-06-26T05:16:14.073Z,1014.19
2019-06-26T05:17:27.766Z,1014.2
2019-06-26T05:18:37.301Z,1014.2
2019-06-26T05:19:47.393Z,1014.16
2019-06-26T05:20:57.096Z,1014.21
2019-06-26T05:22:06.800Z,1014.22
2019-06-26T05:23:16.524Z,1014.2
2019-06-26T05:24:26.225Z,1014.2
2019-06-26T05:25:36.030Z,1014.19
2019-06-26T05:26:45.991Z,1014.2
2019-06-26T05:27:55.704Z,1014.19
2019-06-26T05:29:08.594Z,1014.19
2019-06-26T05:30:18.554Z,1014.15
2019-06-26T05:31:28.525Z,1014.13
2019-06-26T05:32:38.504Z,1014.12
2019-06-26T05:33:48.718Z,1014.08
2019-06-26T05:34:58.429Z,1014.12
2019-06-26T05:36:08.442Z,1014.1
2019-06-26T05:37:18.182Z,1014.1
2019-06-26T05:38:28.142Z,1014.14
2019-06-26T05:39:37.865Z,1014.09
2019-06-26T05:40:47.827Z,1014.14
2019-06-26T05:41:57.542Z,1014.15
2019-06-26T05:43:09.813Z,1014.14
2019-06-26T05:44:19.748Z,1014.16
2019-06-26T05:45:29.288Z,1014.17
2019-06-26T05:46:39.009Z,1014.15
2019-06-26T05:47:48.734Z,1014.18
2019-06-26T05:48:58.207Z,1014.18
2019-06-26T05:50:08.174Z,1014.13
2019-06-26T05:51:18.347Z,1014.16
2019-06-26T05:52:28.075Z,1014.18
2019-06-26T05:53:38.031Z,1014.17
2019-06-26T05:54:47.972Z,1014.17
2019-06-26T05:55:57.963Z,1014.15
2019-06-26T05:57:07.927Z,1014.18
2019-06-26T05:58:17.892Z,1014.21
2019-06-26T05:59:27.857Z,1014.19
2019-06-26T06:00:37.861Z,1014.2
2019-06-26T06:01:47.624Z,1014.19
2019-06-26T06:02:57.581Z,1014.16
2019-06-26T06:04:07.631Z,1014.16
2019-06-26T06:05:17.326Z,1014.15
2019-06-26T06:06:40.556Z,1014.2
2019-06-26T06:07:50.863Z,1014.18
2019-06-26T06:09:00.836Z,1014.2
2019-06-26T06:10:10.780Z,1014.17
2019-06-26T06:11:20.472Z,1014.18
2019-06-26T06:12:30.429Z,1014.16
2019-06-26T06:13:40.407Z,1014.16
2019-06-26T06:14:50.442Z,1014.16
2019-06-26T06:16:00.412Z,1014.2
2019-06-26T06:17:13.773Z,1014.17
2019-06-26T06:18:23.754Z,1014.18
2019-06-26T06:19:33.227Z,1014.21
2019-06-26T06:20:43.196Z,1014.19
2019-06-26T06:21:53.189Z,1014.23
2019-06-26T06:23:03.146Z,1014.24
2019-06-26T06:24:13.089Z,1014.19
2019-06-26T06:25:23.071Z,1014.25
2019-06-26T06:26:33.030Z,1014.27
2019-06-26T06:27:42.754Z,1014.31
2019-06-26T06:28:52.728Z,1014.29
2019-06-26T06:30:02.868Z,1014.25
2019-06-26T06:31:12.384Z,1014.3
2019-06-26T06:32:22.106Z,1014.27
2019-06-26T06:33:32.056Z,1014.27
2019-06-26T06:34:42.028Z,1014.29
2019-06-26T06:35:52.045Z,1014.25
2019-06-26T06:37:01.522Z,1014.23
2019-06-26T06:38:11.256Z,1014.25
2019-06-26T06:39:21.238Z,1014.23
2019-06-26T06:40:31.245Z,1014.29
2019-06-26T06:41:43.307Z,1014.3
2019-06-26T06:42:53.245Z,1014.33
2019-06-26T06:44:03.100Z,1014.3
2019-06-26T06:45:12.794Z,1014.33
2019-06-26T06:46:22.945Z,1014.34
2019-06-26T06:47:32.925Z,1014.33
2019-06-26T06:48:42.666Z,1014.31
2019-06-26T06:49:52.359Z,1014.32
2019-06-26T06:51:02.313Z,1014.35
2019-06-26T06:52:12.007Z,1014.31
2019-06-26T06:53:24.313Z,1014.3
2019-06-26T06:54:34.304Z,1014.27
2019-06-26T06:55:44.263Z,1014.31
2019-06-26T06:56:54.245Z,1014.3
2019-06-26T06:58:04.063Z,1014.3
2019-06-26T06:59:13.508Z,1014.28
2019-06-26T07:00:23.546Z,1014.33
2019-06-26T07:01:33.515Z,1014.31
2019-06-26T07:02:43.220Z,1014.34
2019-06-26T07:03:53.297Z,1014.32
2019-06-26T07:05:03.249Z,1014.33
2019-06-26T07:06:12.964Z,1014.28
2019-06-26T07:07:22.678Z,1014.32
2019-06-26T07:08:32.640Z,1014.33
2019-06-26T07:09:42.612Z,1014.3
2019-06-26T07:10:52.318Z,1014.33
2019-06-26T07:12:02.313Z,1014.32
2019-06-26T07:13:12.272Z,1014.33
2019-06-26T07:14:22.241Z,1014.36
2019-06-26T07:15:32.230Z,1014.33
2019-06-26T07:16:41.943Z,1014.33
2019-06-26T07:17:51.952Z,1014.37
2019-06-26T07:19:01.971Z,1014.35
2019-06-26T07:20:11.942Z,1014.39
2019-06-26T07:21:21.931Z,1014.41
2019-06-26T07:22:31.638Z,1014.44
2019-06-26T07:23:41.439Z,1014.43
2019-06-26T07:24:51.441Z,1014.42
2019-06-26T07:26:01.404Z,1014.42
2019-06-26T07:27:13.841Z,1014.37
2019-06-26T07:28:23.540Z,1014.39
2019-06-26T07:29:33.070Z,1014.4
2019-06-26T07:30:42.808Z,1014.44
2019-06-26T07:31:52.856Z,1014.41
2019-06-26T07:33:02.609Z,1014.39
2019-06-26T07:34:12.357Z,1014.41
2019-06-26T07:35:22.336Z,1014.4
2019-06-26T07:36:32.096Z,1014.4
2019-06-26T07:37:42.062Z,1014.42
2019-06-26T07:38:51.774Z,1014.41
2019-06-26T07:40:02.495Z,1014.42
2019-06-26T07:41:12.625Z,1014.43
2019-06-26T07:42:22.647Z,1014.37
2019-06-26T07:43:32.625Z,1014.38
2019-06-26T07:44:42.597Z,1014.35
2019-06-26T07:45:52.317Z,1014.39
2019-06-26T07:47:02.147Z,1014.37
2019-06-26T07:48:45.890Z,1014.4
2019-06-26T07:49:58.211Z,1014.41
2019-06-26T07:51:08.064Z,1014.43
2019-06-26T07:52:18.062Z,1014.49
2019-06-26T07:53:28.246Z,1014.43
2019-06-26T07:54:38.200Z,1014.42
2019-06-26T07:55:47.923Z,1014.45
2019-06-26T07:56:57.687Z,1014.44
2019-06-26T07:58:07.708Z,1014.41
2019-06-26T07:59:17.427Z,1014.44
2019-06-26T08:00:30.377Z,1014.46
2019-06-26T08:01:41.647Z,1014.4
2019-06-26T08:02:51.834Z,1014.44
2019-06-26T08:04:04.959Z,1014.41
2019-06-26T08:05:15.126Z,1014.4
2019-06-26T08:06:25.117Z,1014.41
2019-06-26T08:07:35.118Z,1014.44
2019-06-26T08:08:45.151Z,1014.44
2019-06-26T08:09:55.132Z,1014.44
2019-06-26T08:11:06.474Z,1014.45
2019-06-26T08:12:16.390Z,1014.42
2019-06-26T08:13:26.138Z,1014.48
2019-06-26T08:14:35.882Z,1014.48
2019-06-26T08:15:45.958Z,1014.56
2019-06-26T08:16:56.011Z,1014.53
2019-06-26T08:18:06.005Z,1014.54
2019-06-26T08:19:15.727Z,1014.61
2019-06-26T08:20:25.702Z,1014.59
2019-06-26T08:21:55.522Z,1014.53
2019-06-26T08:23:05.537Z,1014.55
2019-06-26T08:24:15.548Z,1014.53
2019-06-26T08:25:25.745Z,1014.53
2019-06-26T08:26:35.449Z,1014.55
2019-06-26T08:27:45.157Z,1014.51
2019-06-26T08:28:55.201Z,1014.58
2019-06-26T08:30:04.947Z,1014.54
2019-06-26T08:31:14.981Z,1014.54
2019-06-26T08:32:25.984Z,1014.54
2019-06-26T08:33:36.116Z,1014.52
2019-06-26T08:34:46.082Z,1014.53
2019-06-26T08:35:56.130Z,1014.5
2019-06-26T08:37:06.095Z,1014.56
2019-06-26T08:38:16.074Z,1014.59
2019-06-26T08:39:26.075Z,1014.58
2019-06-26T08:40:35.795Z,1014.52
2019-06-26T08:41:45.534Z,1014.58
2019-06-26T08:42:55.487Z,1014.53
2019-06-26T08:44:05.495Z,1014.55
2019-06-26T08:45:15.455Z,1014.52
2019-06-26T08:46:25.213Z,1014.53
2019-06-26T08:47:35.235Z,1014.49
2019-06-26T08:48:45.233Z,1014.49
2019-06-26T08:49:59.292Z,1014.49
2019-06-26T08:51:09.342Z,1014.51
2019-06-26T08:52:19.590Z,1014.52
2019-06-26T08:53:29.558Z,1014.54
2019-06-26T08:54:39.377Z,1014.54
2019-06-26T08:55:48.879Z,1014.55
2019-06-26T08:56:58.875Z,1014.52
2019-06-26T08:58:08.629Z,1014.57
2019-06-26T08:59:18.710Z,1014.56
2019-06-26T09:00:28.799Z,1014.55
2019-06-26T09:01:39.022Z,1014.57
2019-06-26T09:02:48.869Z,1014.55
2019-06-26T09:03:58.095Z,1014.56
2019-06-26T09:05:08.087Z,1014.57
2019-06-26T09:06:17.802Z,1014.56
2019-06-26T09:07:27.777Z,1014.58
2019-06-26T09:08:37.736Z,1014.62
2019-06-26T09:09:47.715Z,1014.57
2019-06-26T09:10:57.678Z,1014.59
2019-06-26T09:12:07.408Z,1014.55
2019-06-26T09:13:17.380Z,1014.61
2019-06-26T09:14:27.364Z,1014.56
2019-06-26T09:15:37.153Z,1014.53
2019-06-26T09:16:50.364Z,1014.52
2019-06-26T09:18:00.441Z,1014.54
2019-06-26T09:19:10.436Z,1014.53
2019-06-26T09:20:20.154Z,1014.59
2019-06-26T09:21:31.128Z,1014.64
2019-06-26T09:22:41.044Z,1014.59
2019-06-26T09:23:51.068Z,1014.59
2019-06-26T09:25:00.900Z,1014.52
2019-06-26T09:26:28.576Z,1014.55
2019-06-26T09:27:38.604Z,1014.5
2019-06-26T09:28:48.116Z,1014.53
2019-06-26T09:29:58.108Z,1014.56
2019-06-26T09:31:08.203Z,1014.51
2019-06-26T09:32:18.174Z,1014.61
2019-06-26T09:33:31.266Z,1014.54
2019-06-26T09:34:42.188Z,1014.57
2019-06-26T09:35:52.189Z,1014.52
2019-06-26T09:37:02.156Z,1014.51
2019-06-26T09:38:12.133Z,1014.52
2019-06-26T09:39:22.128Z,1014.49
2019-06-26T09:40:32.313Z,1014.44
2019-06-26T09:41:42.364Z,1014.51
2019-06-26T09:42:52.336Z,1014.6
2019-06-26T09:44:02.304Z,1014.44
2019-06-26T09:45:12.290Z,1014.44
2019-06-26T09:46:22.310Z,1014.44
2019-06-26T09:47:32.291Z,1014.46
2019-06-26T09:48:51.895Z,1014.46
2019-06-26T09:50:02.404Z,1014.5
2019-06-26T09:51:12.128Z,1014.44
2019-06-26T09:52:22.087Z,1014.41
2019-06-26T09:53:45.811Z,1014.43
2019-06-26T09:54:56.090Z,1014.38
2019-06-26T09:56:06.085Z,1014.38
2019-06-26T09:57:15.798Z,1014.43
2019-06-26T09:58:25.531Z,1014.4
2019-06-26T09:59:35.487Z,1014.47
2019-06-26T10:00:45.212Z,1014.37
2019-06-26T10:01:55.179Z,1014.42
2019-06-26T10:03:05.148Z,1014.44
2019-06-26T10:04:15.141Z,1014.41
2019-06-26T10:05:24.990Z,1014.42
2019-06-26T10:06:35.068Z,1014.38
2019-06-26T10:07:44.780Z,1014.38
2019-06-26T10:08:54.832Z,1014.41
2019-06-26T10:10:04.326Z,1014.37
2019-06-26T10:11:14.301Z,1014.35
2019-06-26T10:12:24.308Z,1014.38
2019-06-26T10:13:34.271Z,1014.41
2019-06-26T10:14:47.582Z,1014.42
2019-06-26T10:16:00.367Z,1014.39
2019-06-26T10:17:10.314Z,1014.39
2019-06-26T10:18:20.276Z,1014.38
2019-06-26T10:19:30.307Z,1014.41
2019-06-26T10:20:40.290Z,1014.38
2019-06-26T10:21:50.267Z,1014.42
2019-06-26T10:23:00.330Z,1014.33
2019-06-26T10:24:10.050Z,1014.34
2019-06-26T10:25:20.031Z,1014.36
2019-06-26T10:26:32.457Z,1014.28
2019-06-26T10:27:42.699Z,1014.29
2019-06-26T10:28:52.699Z,1014.24
2019-06-26T10:30:02.888Z,1014.32
2019-06-26T10:31:12.862Z,1014.32
2019-06-26T10:32:26.110Z,1014.28
2019-06-26T10:33:35.975Z,1014.22
2019-06-26T10:34:45.800Z,1014.35
2019-06-26T10:35:55.516Z,1014.27
2019-06-26T10:37:05.505Z,1014.33
2019-06-26T10:38:15.499Z,1014.24
2019-06-26T10:39:25.459Z,1014.25
2019-06-26T10:40:35.199Z,1014.28
2019-06-26T10:41:45.151Z,1014.23
2019-06-26T10:42:57.863Z,1014.26
2019-06-26T10:44:08.084Z,1014.29
2019-06-26T10:45:18.103Z,1014.23
2019-06-26T10:46:28.057Z,1014.31
2019-06-26T10:47:39.770Z,1014.25
2019-06-26T10:48:49.979Z,1014.24
2019-06-26T10:49:59.847Z,1014.15
2019-06-26T10:51:09.812Z,1014.14
2019-06-26T10:52:19.544Z,1014.06
2019-06-26T10:53:29.518Z,1014.21
2019-06-26T10:54:39.506Z,1014.22
2019-06-26T10:55:52.098Z,1014.14
2019-06-26T10:57:02.089Z,1014.09
2019-06-26T10:58:12.092Z,1014.11
2019-06-26T10:59:22.090Z,1014.1
2019-06-26T11:00:31.850Z,1014.06
2019-06-26T11:01:41.717Z,1014.08
2019-06-26T11:02:51.461Z,1014.06
2019-06-26T11:04:01.104Z,1014
2019-06-26T11:05:11.108Z,1013.95
2019-06-26T11:06:21.069Z,1014
2019-06-26T11:07:30.900Z,1013.93
2019-06-26T11:08:44.028Z,1014.01
2019-06-26T11:09:53.750Z,1013.94
2019-06-26T11:11:03.750Z,1013.89
2019-06-26T11:12:13.732Z,1013.95
2019-06-26T11:13:23.734Z,1013.97
2019-06-26T11:14:33.776Z,1013.98
2019-06-26T11:15:43.792Z,1014.03
2019-06-26T11:16:53.557Z,1013.94
2019-06-26T11:18:03.580Z,1014.09
2019-06-26T11:19:13.618Z,1013.92
2019-06-26T11:20:23.579Z,1014.02
2019-06-26T11:21:33.297Z,1013.99
2019-06-26T11:22:43.279Z,1014.13
2019-06-26T11:23:53.258Z,1014.18
2019-06-26T11:25:03.261Z,1013.81
2019-06-26T11:26:13.287Z,1014
2019-06-26T11:27:23.045Z,1013.88
2019-06-26T11:28:33.047Z,1013.88
2019-06-26T11:29:42.882Z,1013.87
2019-06-26T11:30:52.680Z,1013.87
2019-06-26T11:32:02.726Z,1013.95
2019-06-26T11:33:14.923Z,1013.91
2019-06-26T11:34:24.938Z,1013.94
2019-06-26T11:35:34.969Z,1013.92
2019-06-26T11:36:59.440Z,1013.85
2019-06-26T11:38:12.747Z,1013.85
2019-06-26T11:39:22.787Z,1013.86
2019-06-26T11:40:32.803Z,1013.88
2019-06-26T11:41:42.816Z,1013.86
2019-06-26T11:42:52.821Z,1013.8
2019-06-26T11:44:02.870Z,1013.91
2019-06-26T11:45:12.915Z,1013.76
2019-06-26T11:46:22.880Z,1013.77
2019-06-26T11:47:32.632Z,1013.81
2019-06-26T11:48:46.173Z,1013.75
2019-06-26T11:50:00.073Z,1013.82
2019-06-26T11:51:10.471Z,1013.78
2019-06-26T11:52:20.445Z,1013.75
2019-06-26T11:53:30.496Z,1013.71
2019-06-26T11:54:40.503Z,1013.78
2019-06-26T11:56:07.204Z,1013.71
2019-06-26T11:57:17.421Z,1013.74
2019-06-26T11:58:27.400Z,1013.74
2019-06-26T11:59:37.363Z,1013.7
2019-06-26T12:00:47.141Z,1013.78
2019-06-26T12:01:56.982Z,1013.72
2019-06-26T12:03:07.130Z,1013.73
2019-06-26T12:04:21.133Z,1013.62
2019-06-26T12:05:31.155Z,1013.61
2019-06-26T12:06:40.917Z,1013.64
2019-06-26T12:07:53.487Z,1013.71
2019-06-26T12:09:03.473Z,1013.72
2019-06-26T12:10:13.519Z,1013.67
2019-06-26T12:11:23.580Z,1013.76
2019-06-26T12:12:33.351Z,1013.74
2019-06-26T12:13:43.340Z,1013.66
2019-06-26T12:14:53.063Z,1013.63
2019-06-26T12:16:02.928Z,1013.7
2019-06-26T12:17:12.933Z,1013.68
2019-06-26T12:18:23.036Z,1013.73
2019-06-26T12:19:33.050Z,1013.61
2019-06-26T12:20:42.777Z,1013.59
2019-06-26T12:21:52.591Z,1013.74
2019-06-26T12:23:02.597Z,1013.66
2019-06-26T12:24:12.626Z,1013.74
2019-06-26T12:25:21.859Z,1013.64
2019-06-26T12:26:31.598Z,1013.57
2019-06-26T12:27:41.616Z,1013.69
2019-06-26T12:28:51.599Z,1013.6
2019-06-26T12:30:01.758Z,1013.6
2019-06-26T12:31:11.769Z,1013.61
2019-06-26T12:32:21.256Z,1013.65
2019-06-26T12:33:31.247Z,1013.6
2019-06-26T12:34:44.838Z,1013.67
2019-06-26T12:35:55.186Z,1013.64
2019-06-26T12:37:05.179Z,1013.56
2019-06-26T12:38:15.162Z,1013.76
2019-06-26T12:39:24.901Z,1013.66
2019-06-26T12:40:34.948Z,1013.64
2019-06-26T12:41:44.408Z,1013.78
2019-06-26T12:42:55.573Z,1013.78
2019-06-26T12:44:05.775Z,1013.63
2019-06-26T12:45:15.975Z,1013.61
2019-06-26T12:46:25.739Z,1013.55
2019-06-26T12:47:35.946Z,1013.5
2019-06-26T12:48:45.722Z,1013.5
2019-06-26T12:49:55.534Z,1013.69
2019-06-26T12:51:05.864Z,1013.57
2019-06-26T12:52:17.030Z,1013.53
2019-06-26T12:53:26.851Z,1013.58
2019-06-26T12:54:36.846Z,1013.63
2019-06-26T12:55:46.828Z,1013.5
2019-06-26T12:56:56.830Z,1013.52
2019-06-26T12:58:13.754Z,1013.6
2019-06-26T12:59:27.940Z,1013.54
2019-06-26T13:00:37.952Z,1013.5
2019-06-26T13:01:47.962Z,1013.57
2019-06-26T13:02:58.101Z,1013.65
2019-06-26T13:04:07.648Z,1013.54
2019-06-26T13:05:17.670Z,1013.61
2019-06-26T13:06:27.624Z,1013.62
2019-06-26T13:07:37.628Z,1013.54
2019-06-26T13:08:47.592Z,1013.62
2019-06-26T13:09:57.563Z,1013.56
2019-06-26T13:11:10.306Z,1013.68
2019-06-26T13:12:20.366Z,1013.6
2019-06-26T13:13:30.448Z,1013.53
2019-06-26T13:14:40.212Z,1013.53
2019-06-26T13:15:51.195Z,1013.63
2019-06-26T13:17:01.129Z,1013.57
2019-06-26T13:18:11.211Z,1013.57
2019-06-26T13:19:21.252Z,1013.62
2019-06-26T13:20:31.011Z,1013.54
2019-06-26T13:21:57.413Z,1013.47
2019-06-26T13:23:07.154Z,1013.52
2019-06-26T13:24:20.158Z,1013.63
2019-06-26T13:25:29.961Z,1013.54
2019-06-26T13:26:39.694Z,1013.7
2019-06-26T13:27:49.661Z,1013.61
2019-06-26T13:28:59.415Z,1013.53
2019-06-26T13:30:12.699Z,1013.6
2019-06-26T13:31:22.572Z,1013.55
2019-06-26T13:32:32.554Z,1013.52
2019-06-26T13:33:42.294Z,1013.53
2019-06-26T13:34:52.060Z,1013.58
2019-06-26T13:36:02.148Z,1013.58
2019-06-26T13:37:12.365Z,1013.5
2019-06-26T13:38:22.085Z,1013.53
2019-06-26T13:39:34.777Z,1013.49
2019-06-26T13:40:44.487Z,1013.51
2019-06-26T13:41:53.943Z,1013.49
2019-06-26T13:43:04.093Z,1013.44
2019-06-26T13:44:13.573Z,1013.39
2019-06-26T13:45:23.543Z,1013.46
2019-06-26T13:46:33.270Z,1013.58
2019-06-26T13:47:42.744Z,1013.45
2019-06-26T13:48:52.759Z,1013.47
2019-06-26T13:50:02.971Z,1013.32
2019-06-26T13:51:12.675Z,1013.36
2019-06-26T13:52:24.545Z,1013.55
2019-06-26T13:53:34.552Z,1013.57
2019-06-26T13:54:44.527Z,1013.57
2019-06-26T13:55:57.788Z,1013.48
2019-06-26T13:57:07.536Z,1013.53
2019-06-26T13:58:21.030Z,1013.51
2019-06-26T13:59:31.046Z,1013.49
2019-06-26T14:00:41.065Z,1013.36
2019-06-26T14:01:51.048Z,1013.38
2019-06-26T14:03:01.077Z,1013.41
2019-06-26T14:04:10.669Z,1013.55
2019-06-26T14:05:20.314Z,1013.42
2019-06-26T14:06:32.518Z,1013.36
2019-06-26T14:07:42.480Z,1013.3
2019-06-26T14:08:52.461Z,1013.35
2019-06-26T14:10:02.171Z,1013.31
2019-06-26T14:11:11.890Z,1013.32
2019-06-26T14:12:21.875Z,1013.08
2019-06-26T14:13:31.635Z,1013.32
2019-06-26T14:14:56.512Z,1013.24